Time;durP1;ratioP1;P1;durP2;ratioP2;P2;SDS_P1;SDS_P2;PMS_P1;PMS_P2;Temp;Humidity;BMP_temperature;BMP_pressure;BME280_temperature;BME280_humidity;BME280_pressure;Samples;Min_cycle;Max_cycle;Signal;HPM_P1;HPM_P2
2023/04/27 00:00:49;;;;;;;5.05;2.50;;;;;;;;;;10519847;28;20047;-75
2023/04/27 00:05:52;;;;;;;6.95;3.03;;;;;;;;;;10520649;28;20040;-76
2023/04/27 00:10:57;;;;;;;7.07;2.67;;;;;;;;;;10520551;28;20042;-75
2023/04/27 00:16:02;;;;;;;5.28;3.00;;;;;;;;;;10534323;28;20048;-76
2023/04/27 00:21:06;;;;;;;6.47;2.63;;;;;;;;;;10520356;28;20039;-75
2023/04/27 00:26:10;;;;;;;7.40;3.03;;;;;;;;;;10520697;28;20339;-75
2023/04/27 00:31:13;;;;;;;10.02;3.63;;;;;;;;;;10531068;28;20071;-74
2023/04/27 00:36:15;;;;;;;5.38;2.40;;;;;;;;;;10524555;28;20163;-75
2023/04/27 00:41:21;;;;;;;6.68;2.80;;;;;;;;;;10515709;28;20055;-75
2023/04/27 00:46:25;;;;;;;5.20;2.47;;;;;;;;;;10521998;28;20055;-75
2023/04/27 00:51:29;;;;;;;8.95;2.55;;;;;;;;;;10524669;28;20404;-74
2023/04/27 00:56:34;;;;;;;4.85;2.20;;;;;;;;;;10511997;28;20047;-76
2023/04/27 01:01:37;;;;;;;8.32;2.70;;;;;;;;;;10519143;28;20776;-76
2023/04/27 01:06:40;;;;;;;4.65;2.60;;;;;;;;;;10527722;28;20043;-74
2023/04/27 01:11:44;;;;;;;6.15;2.70;;;;;;;;;;10518118;28;20040;-75
2023/04/27 01:16:47;;;;;;;5.95;2.60;;;;;;;;;;10523940;28;20384;-75
2023/04/27 01:21:50;;;;;;;5.17;2.80;;;;;;;;;;10521792;28;20622;-75
2023/04/27 01:26:55;;;;;;;5.10;2.47;;;;;;;;;;10513719;28;20059;-75
2023/04/27 01:31:58;;;;;;;6.32;2.45;;;;;;;;;;10522144;28;20144;-75
2023/04/27 01:37:00;;;;;;;8.85;3.10;;;;;;;;;;10520905;28;20047;-75
2023/04/27 01:42:05;;;;;;;9.10;3.13;;;;;;;;;;10521919;28;20044;-74
2023/04/27 01:47:08;;;;;;;5.53;2.78;;;;;;;;;;10515105;28;20124;-74
2023/04/27 01:52:11;;;;;;;7.50;3.30;;;;;;;;;;10513557;28;20056;-75
2023/04/27 01:57:16;;;;;;;7.60;3.05;;;;;;;;;;10518385;28;20491;-75
2023/04/27 02:02:19;;;;;;;8.27;3.60;;;;;;;;;;10520785;28;20040;-76
2023/04/27 02:07:21;;;;;;;5.60;2.83;;;;;;;;;;10519862;28;20058;-74
2023/04/27 02:12:26;;;;;;;7.18;2.95;;;;;;;;;;10512699;28;20112;-75
2023/04/27 02:17:30;;;;;;;8.25;3.20;;;;;;;;;;10519813;28;20113;-75
2023/04/27 02:22:33;;;;;;;;;;;;;;;;;;10521034;28;20060;-77
2023/04/27 02:27:38;;;;;;;8.57;3.10;;;;;;;;;;10525370;28;19946;-77
2023/04/27 02:32:42;;;;;;;8.52;3.72;;;;;;;;;;10532365;28;20056;-74
2023/04/27 02:37:45;;;;;;;7.90;3.75;;;;;;;;;;10515443;28;20067;-75
2023/04/27 02:42:49;;;;;;;8.63;3.33;;;;;;;;;;10529953;28;20392;-75
2023/04/27 02:47:53;;;;;;;8.45;3.78;;;;;;;;;;10529825;28;20032;-75
2023/04/27 02:52:56;;;;;;;8.67;3.57;;;;;;;;;;10523523;28;20393;-75
2023/04/27 02:58:00;;;;;;;9.98;3.70;;;;;;;;;;10526498;27;20036;-75
2023/04/27 03:03:03;;;;;;;10.02;3.85;;;;;;;;;;10516016;28;20072;-75
2023/04/27 03:08:06;;;;;;;13.40;4.05;;;;;;;;;;10523734;28;20041;-74
2023/04/27 03:13:11;;;;;;;7.78;3.90;;;;;;;;;;10532038;28;20479;-75
2023/04/27 03:18:13;;;;;;;7.40;3.65;;;;;;;;;;10519572;28;20040;-75
2023/04/27 03:23:16;;;;;;;7.78;3.40;;;;;;;;;;10526583;28;20043;-75
2023/04/27 03:28:20;;;;;;;7.65;2.83;;;;;;;;;;10519903;28;20375;-76
2023/04/27 03:33:23;;;;;;;9.10;3.45;;;;;;;;;;10514237;28;20044;-75
2023/04/27 03:38:25;;;;;;;8.90;4.32;;;;;;;;;;10516075;28;20053;-75
2023/04/27 03:43:29;;;;;;;9.43;4.47;;;;;;;;;;10510819;28;20214;-75
2023/04/27 03:48:32;;;;;;;7.63;3.58;;;;;;;;;;10515170;28;20040;-75
2023/04/27 03:53:35;;;;;;;11.30;4.22;;;;;;;;;;10523984;28;20059;-74
2023/04/27 03:58:39;;;;;;;10.82;3.95;;;;;;;;;;10519817;28;20121;-75
2023/04/27 04:03:42;;;;;;;8.93;4.00;;;;;;;;;;10526911;28;20404;-75
2023/04/27 04:08:46;;;;;;;8.98;3.80;;;;;;;;;;10526885;28;20051;-75
2023/04/27 04:13:50;;;;;;;8.75;3.78;;;;;;;;;;10526482;28;20296;-76
2023/04/27 04:18:53;;;;;;;6.82;3.72;;;;;;;;;;10521396;28;20041;-75
2023/04/27 04:23:56;;;;;;;7.60;3.92;;;;;;;;;;10523095;28;20047;-76
2023/04/27 04:29:00;;;;;;;7.20;3.58;;;;;;;;;;10526787;28;20040;-76
2023/04/27 04:34:02;;;;;;;9.43;3.80;;;;;;;;;;10522055;27;20072;-75
2023/04/27 04:39:05;;;;;;;10.25;4.32;;;;;;;;;;10521276;28;20032;-75
2023/04/27 04:44:13;;;;;;;9.85;4.75;;;;;;;;;;10523841;28;20048;-74
2023/04/27 04:49:15;;;;;;;14.30;3.15;;;;;;;;;;10526152;28;20227;-75
2023/04/27 04:54:18;;;;;;;9.23;3.22;;;;;;;;;;10516646;28;20070;-74
2023/04/27 04:59:22;;;;;;;5.00;3.00;;;;;;;;;;10517870;28;20059;-77
2023/04/27 05:04:25;;;;;;;4.03;1.95;;;;;;;;;;10519955;28;20044;-75
2023/04/27 05:09:28;;;;;;;4.10;2.35;;;;;;;;;;10510078;28;20608;-75
2023/04/27 05:14:32;;;;;;;7.93;3.10;;;;;;;;;;10519130;28;20047;-75
2023/04/27 05:19:35;;;;;;;5.53;3.10;;;;;;;;;;10527167;28;20046;-73
2023/04/27 05:24:38;;;;;;;6.72;2.63;;;;;;;;;;10518136;28;20106;-74
2023/04/27 05:29:42;;;;;;;1.95;1.25;;;;;;;;;;10515690;28;20463;-74
2023/04/27 05:34:45;;;;;;;7.47;3.03;;;;;;;;;;10516344;28;20035;-74
2023/04/27 05:39:51;;;;;;;7.13;3.40;;;;;;;;;;10516195;28;20059;-75
2023/04/27 05:44:55;;;;;;;4.32;2.08;;;;;;;;;;10520284;28;20035;-75
2023/04/27 05:49:58;;;;;;;8.45;3.38;;;;;;;;;;10513458;28;20540;-75
2023/04/27 05:55:01;;;;;;;11.00;3.40;;;;;;;;;;10520541;28;20055;-75
2023/04/27 06:00:09;;;;;;;7.70;3.60;;;;;;;;;;10518076;28;20465;-76
2023/04/27 06:05:12;;;;;;;5.75;3.05;;;;;;;;;;10510714;28;20139;-75
2023/04/27 06:10:15;;;;;;;7.93;2.35;;;;;;;;;;10514318;28;20040;-75
2023/04/27 06:15:19;;;;;;;8.60;4.15;;;;;;;;;;10512862;28;20064;-74
2023/04/27 06:20:22;;;;;;;12.43;4.55;;;;;;;;;;10516549;28;20115;-76
2023/04/27 06:25:26;;;;;;;13.60;4.73;;;;;;;;;;10510691;28;20055;-76
2023/04/27 06:30:30;;;;;;;8.00;4.13;;;;;;;;;;10515565;28;20634;-76
2023/04/27 06:35:33;;;;;;;8.88;4.03;;;;;;;;;;10511625;28;20488;-76
2023/04/27 06:40:36;;;;;;;7.93;4.10;;;;;;;;;;10510363;28;20044;-76
2023/04/27 06:45:41;;;;;;;11.27;4.40;;;;;;;;;;10512704;28;20088;-75
2023/04/27 06:50:44;;;;;;;9.40;3.17;;;;;;;;;;10524486;28;20114;-76
2023/04/27 06:55:47;;;;;;;10.90;4.65;;;;;;;;;;10513916;28;20032;-76
2023/04/27 07:00:51;;;;;;;7.83;3.57;;;;;;;;;;10513115;28;20048;-76
2023/04/27 07:05:55;;;;;;;5.43;2.30;;;;;;;;;;10508298;28;20043;-76
2023/04/27 07:10:58;;;;;;;12.52;3.58;;;;;;;;;;10512376;28;20058;-76
2023/04/27 07:16:02;;;;;;;6.47;3.40;;;;;;;;;;10525593;28;20472;-74
2023/04/27 07:21:05;;;;;;;3.90;2.00;;;;;;;;;;10528528;28;20044;-76
2023/04/27 07:26:09;;;;;;;9.10;3.40;;;;;;;;;;10524955;28;20036;-75
2023/04/27 07:31:14;;;;;;;4.10;2.15;;;;;;;;;;10525642;28;20072;-76
2023/04/27 07:36:18;;;;;;;7.28;3.75;;;;;;;;;;10518457;28;20508;-75
2023/04/27 07:41:22;;;;;;;14.38;3.92;;;;;;;;;;10521365;28;20187;-76
2023/04/27 07:46:26;;;;;;;9.38;3.70;;;;;;;;;;10528902;28;20127;-76
2023/04/27 07:51:28;;;;;;;;;;;;;;;;;;10527463;27;20442;-74
2023/04/27 07:56:31;;;;;;;10.60;3.30;;;;;;;;;;10523577;28;20002;-75
2023/04/27 08:01:36;;;;;;;9.60;3.60;;;;;;;;;;10517332;28;20502;-75
2023/04/27 08:06:39;;;;;;;6.03;3.30;;;;;;;;;;10515003;28;20040;-76
2023/04/27 08:11:43;;;;;;;;;;;;;;;;;;10522549;28;20488;-76
2023/04/27 08:16:47;;;;;;;7.25;3.47;;;;;;;;;;10518549;28;19947;-75
2023/04/27 08:21:51;;;;;;;9.70;3.85;;;;;;;;;;10511004;28;20497;-76
2023/04/27 08:26:53;;;;;;;9.10;3.37;;;;;;;;;;10508890;28;20039;-78
2023/04/27 08:31:58;;;;;;;11.60;4.22;;;;;;;;;;10516676;28;20044;-76
2023/04/27 08:37:03;;;;;;;10.15;3.80;;;;;;;;;;10509992;28;20048;-76
2023/04/27 08:42:10;;;;;;;8.27;3.60;;;;;;;;;;10517210;28;20047;-74
2023/04/27 08:47:14;;;;;;;10.27;3.78;;;;;;;;;;10524421;28;20133;-76
2023/04/27 08:52:18;;;;;;;8.48;3.90;;;;;;;;;;10521038;28;20094;-76
2023/04/27 08:57:20;;;;;;;12.55;3.92;;;;;;;;;;10518540;28;20031;-76
2023/04/27 09:02:28;;;;;;;7.78;4.07;;;;;;;;;;10516918;28;20505;-76
2023/04/27 09:07:31;;;;;;;7.25;3.60;;;;;;;;;;10511291;28;20032;-75
2023/04/27 09:12:33;;;;;;;8.23;4.07;;;;;;;;;;10513385;28;20127;-77
2023/04/27 09:17:38;;;;;;;9.20;4.40;;;;;;;;;;10517133;28;20040;-77
2023/04/27 09:22:44;;;;;;;8.35;4.30;;;;;;;;;;10506357;28;20046;-77
2023/04/27 09:27:47;;;;;;;8.13;4.03;;;;;;;;;;10511897;28;20046;-76
2023/04/27 09:32:55;;;;;;;6.55;4.10;;;;;;;;;;10514635;28;20036;-76
2023/04/27 09:37:59;;;;;;;13.30;4.70;;;;;;;;;;10505763;28;20044;-76
2023/04/27 09:43:02;;;;;;;6.50;4.13;;;;;;;;;;10506917;28;20338;-78
2023/04/27 09:48:06;;;;;;;7.38;4.30;;;;;;;;;;10515789;28;20043;-77
2023/04/27 09:53:11;;;;;;;11.57;4.70;;;;;;;;;;10507534;28;20071;-77
2023/04/27 10:03:51;;;;;;;11.73;4.85;;;;;;;;;;10724452;23;20056;-82
2023/04/27 10:09:16;;;;;;;11.25;4.93;;;;;;;;;;10238302;28;20051;-83
2023/04/27 10:14:47;;;;;;;7.68;4.68;;;;;;;;;;10215720;29;20043;-83
2023/04/27 10:20:13;;;;;;;9.10;5.50;;;;;;;;;;10195463;29;20175;-83
2023/04/27 10:25:40;;;;;;;8.82;4.78;;;;;;;;;;10195466;28;20400;-82
2023/04/27 10:31:09;;;;;;;9.90;4.32;;;;;;;;;;10216224;28;20125;-82
2023/04/27 10:36:15;;;;;;;10.48;4.25;;;;;;;;;;10217270;29;20372;-82
2023/04/27 10:41:38;;;;;;;6.97;4.00;;;;;;;;;;10215620;29;20095;-82
2023/04/27 10:47:02;;;;;;;9.32;5.00;;;;;;;;;;10223032;28;20115;-82
2023/04/27 10:52:27;;;;;;;7.05;4.25;;;;;;;;;;10227430;29;20052;-83
2023/04/27 10:57:52;;;;;;;7.50;4.65;;;;;;;;;;10243613;29;20051;-86
2023/04/27 11:03:16;;;;;;;8.65;4.53;;;;;;;;;;10226904;29;20468;-84
2023/04/27 11:08:45;;;;;;;4.75;3.40;;;;;;;;;;10229429;29;20504;-84
2023/04/27 11:14:08;;;;;;;8.43;3.40;;;;;;;;;;10222495;29;20134;-85
2023/04/27 11:19:31;;;;;;;6.22;4.00;;;;;;;;;;10222240;29;20798;-84
2023/04/27 11:24:56;;;;;;;6.28;3.28;;;;;;;;;;10225393;29;20051;-84
2023/04/27 11:29:58;;;;;;;7.40;3.03;;;;;;;;;;10105482;29;20051;-83
2023/04/27 11:35:01;;;;;;;6.43;2.97;;;;;;;;;;10192795;29;20464;-83
2023/04/27 11:40:07;;;;;;;5.78;3.05;;;;;;;;;;10191411;29;20063;-83
2023/04/27 11:45:12;;;;;;;6.18;2.45;;;;;;;;;;10180599;29;20092;-84
2023/04/27 11:50:14;;;;;;;5.95;3.20;;;;;;;;;;10186025;29;20063;-84
2023/04/27 11:55:20;;;;;;;6.63;2.70;;;;;;;;;;10185005;29;20054;-83
2023/04/27 12:00:23;;;;;;;8.52;3.30;;;;;;;;;;10187275;29;20043;-83
2023/04/27 12:05:25;;;;;;;21.85;4.13;;;;;;;;;;10193488;29;20410;-83
2023/04/27 12:10:30;;;;;;;9.07;2.88;;;;;;;;;;10192670;29;20048;-83
2023/04/27 12:15:33;;;;;;;5.85;3.47;;;;;;;;;;10194673;29;20048;-83
2023/04/27 12:20:36;;;;;;;;;;;;;;;;;;10196137;29;20032;-84
2023/04/27 12:25:42;;;;;;;3.87;2.40;;;;;;;;;;10191581;29;20037;-83
2023/04/27 12:30:46;;;;;;;5.05;2.70;;;;;;;;;;10187204;29;20375;-84
2023/04/27 12:35:48;;;;;;;4.70;2.80;;;;;;;;;;10569614;23;20459;-77
2023/04/27 12:40:52;;;;;;;6.40;2.35;;;;;;;;;;10165303;29;20032;-78
2023/04/27 12:45:55;;;;;;;4.32;2.80;;;;;;;;;;10176405;29;20040;-79
2023/04/27 12:50:58;;;;;;;;;;;;;;;;;;10185521;29;20090;-83
2023/04/27 12:56:03;;;;;;;17.13;3.93;;;;;;;;;;10177285;29;19923;-81
2023/04/27 13:01:13;;;;;;;4.90;2.70;;;;;;;;;;10189736;29;20071;-83
2023/04/27 13:06:16;;;;;;;4.68;2.95;;;;;;;;;;10179093;29;20048;-82
2023/04/27 13:11:20;;;;;;;9.02;2.50;;;;;;;;;;10177320;29;20048;-83
2023/04/27 13:16:24;;;;;;;5.13;2.50;;;;;;;;;;10171665;29;20052;-83
2023/04/27 13:21:28;;;;;;;4.25;2.13;;;;;;;;;;10171332;29;20044;-83
2023/04/27 13:26:32;;;;;;;6.43;2.35;;;;;;;;;;10168341;29;20095;-83
2023/04/27 13:31:35;;;;;;;5.22;2.47;;;;;;;;;;10177282;29;20032;-83
2023/04/27 13:36:39;;;;;;;6.90;3.15;;;;;;;;;;10185189;29;20484;-83
2023/04/27 13:41:43;;;;;;;5.97;2.50;;;;;;;;;;10175861;29;20044;-83
2023/04/27 13:46:46;;;;;;;3.85;1.85;;;;;;;;;;10171774;29;20060;-83
2023/04/27 13:51:49;;;;;;;2.85;1.90;;;;;;;;;;10179618;29;20045;-83
2023/04/27 13:56:53;;;;;;;5.10;2.65;;;;;;;;;;10176841;29;20397;-83
2023/04/27 14:01:56;;;;;;;4.55;2.22;;;;;;;;;;10178213;29;20043;-82
2023/04/27 14:06:58;;;;;;;5.40;2.35;;;;;;;;;;10178106;29;20048;-82
2023/04/27 14:12:03;;;;;;;3.83;2.03;;;;;;;;;;10172330;29;20054;-82
2023/04/27 14:17:05;;;;;;;3.88;1.67;;;;;;;;;;10176264;29;20056;-80
2023/04/27 14:22:08;;;;;;;4.70;2.50;;;;;;;;;;10187404;29;20063;-81
2023/04/27 14:27:12;;;;;;;4.47;2.05;;;;;;;;;;10188709;29;20141;-82
2023/04/27 14:32:15;;;;;;;2.40;1.40;;;;;;;;;;10183780;29;20190;-82
2023/04/27 14:37:18;;;;;;;4.35;2.00;;;;;;;;;;10181219;29;20048;-82
2023/04/27 14:42:22;;;;;;;5.90;2.43;;;;;;;;;;10185415;29;20067;-82
2023/04/27 14:47:25;;;;;;;4.22;1.83;;;;;;;;;;10186353;29;20455;-81
2023/04/27 14:52:28;;;;;;;3.55;2.20;;;;;;;;;;10178954;29;20497;-82
2023/04/27 14:57:32;;;;;;;6.03;2.20;;;;;;;;;;10182502;29;20358;-82
2023/04/27 15:02:35;;;;;;;3.50;1.85;;;;;;;;;;10181362;29;20066;-81
2023/04/27 15:07:38;;;;;;;4.43;2.88;;;;;;;;;;10184472;29;20508;-83
2023/04/27 15:12:42;;;;;;;3.50;1.73;;;;;;;;;;10183706;29;20047;-82
2023/04/27 15:17:44;;;;;;;8.15;3.30;;;;;;;;;;10182635;29;20544;-82
2023/04/27 15:22:47;;;;;;;3.88;2.10;;;;;;;;;;10181392;29;20046;-84
2023/04/27 15:27:51;;;;;;;3.77;2.00;;;;;;;;;;10179901;29;20039;-83
2023/04/27 15:32:54;;;;;;;3.78;2.03;;;;;;;;;;10171419;29;20129;-83
2023/04/27 15:37:57;;;;;;;;;;;;;;;;;;10184020;29;20204;-82
2023/04/27 15:43:02;;;;;;;7.03;3.58;;;;;;;;;;10184857;29;19989;-82
2023/04/27 15:48:04;;;;;;;7.90;3.72;;;;;;;;;;10181581;29;20039;-83
2023/04/27 15:53:08;;;;;;;5.60;2.70;;;;;;;;;;10175732;29;20074;-83
2023/04/27 15:58:12;;;;;;;3.65;2.42;;;;;;;;;;10178765;29;20501;-82
2023/04/27 16:03:15;;;;;;;6.68;2.08;;;;;;;;;;10176933;29;20100;-84
2023/04/27 16:08:18;;;;;;;7.05;3.78;;;;;;;;;;10181382;29;20064;-83
2023/04/27 16:13:23;;;;;;;6.63;2.17;;;;;;;;;;10175204;29;20048;-84
2023/04/27 16:18:26;;;;;;;7.03;2.78;;;;;;;;;;10175149;29;20039;-83
2023/04/27 16:23:28;;;;;;;5.73;2.30;;;;;;;;;;10175860;29;20067;-84
2023/04/27 16:28:33;;;;;;;5.65;2.65;;;;;;;;;;10177645;29;20140;-83
2023/04/27 16:33:36;;;;;;;10.50;2.55;;;;;;;;;;10176723;29;20398;-82
2023/04/27 16:38:39;;;;;;;7.45;2.88;;;;;;;;;;10180487;29;20063;-84
2023/04/27 16:43:43;;;;;;;4.72;2.33;;;;;;;;;;10174501;29;20420;-84
2023/04/27 16:48:46;;;;;;;6.15;2.72;;;;;;;;;;10176224;29;20489;-82
2023/04/27 16:53:49;;;;;;;6.05;2.08;;;;;;;;;;10176994;29;20048;-83
2023/04/27 16:58:54;;;;;;;4.97;2.30;;;;;;;;;;10179352;29;20393;-82
2023/04/27 17:03:57;;;;;;;5.88;2.70;;;;;;;;;;10172702;29;20051;-83
2023/04/27 17:09:00;;;;;;;5.78;2.85;;;;;;;;;;10177717;29;20119;-83
2023/04/27 17:14:05;;;;;;;5.80;2.58;;;;;;;;;;10177491;29;20110;-83
2023/04/27 17:19:07;;;;;;;6.43;3.10;;;;;;;;;;10174830;29;20042;-82
2023/04/27 17:24:10;;;;;;;4.93;2.53;;;;;;;;;;10178549;29;20160;-82
2023/04/27 17:29:14;;;;;;;6.47;2.57;;;;;;;;;;10175297;29;20048;-82
2023/04/27 17:34:17;;;;;;;5.43;3.00;;;;;;;;;;10170927;29;20052;-83
2023/04/27 17:39:23;;;;;;;3.07;2.00;;;;;;;;;;10168329;29;20523;-81
2023/04/27 17:44:27;;;;;;;6.10;2.55;;;;;;;;;;10172142;29;20047;-81
2023/04/27 17:49:30;;;;;;;6.82;2.80;;;;;;;;;;10174120;29;20063;-82
2023/04/27 17:54:33;;;;;;;6.67;2.87;;;;;;;;;;10175431;29;20051;-83
2023/04/27 17:59:37;;;;;;;8.90;3.45;;;;;;;;;;10173974;29;20064;-82
2023/04/27 18:04:40;;;;;;;7.43;3.25;;;;;;;;;;10186623;29;20080;-83
2023/04/27 18:09:43;;;;;;;8.40;3.20;;;;;;;;;;10177984;29;20978;-82
2023/04/27 18:14:49;;;;;;;8.90;3.45;;;;;;;;;;10176997;29;20566;-82
2023/04/27 18:19:53;;;;;;;6.75;2.75;;;;;;;;;;10170098;29;20042;-82
2023/04/27 18:25:11;;;;;;;7.25;3.10;;;;;;;;;;10175649;29;20123;-82
2023/04/27 18:30:16;;;;;;;6.97;3.05;;;;;;;;;;10172882;29;20046;-83
2023/04/27 18:35:18;;;;;;;4.68;2.72;;;;;;;;;;10178384;29;20055;-84
2023/04/27 18:40:22;;;;;;;6.70;2.95;;;;;;;;;;10175234;29;20147;-84
2023/04/27 18:45:26;;;;;;;8.25;3.08;;;;;;;;;;10174810;29;20055;-82
2023/04/27 18:50:28;;;;;;;;;;;;;;;;;;10174273;29;20045;-82
2023/04/27 18:55:30;;;;;;;15.57;3.47;;;;;;;;;;10171106;29;19927;-83
2023/04/27 19:00:34;;;;;;;10.93;4.15;;;;;;;;;;10172074;29;20127;-83
2023/04/27 19:05:37;;;;;;;;;;;;;;;;;;10174960;29;20060;-83
2023/04/27 19:10:40;;;;;;;5.13;2.22;;;;;;;;;;10185597;29;19923;-84
2023/04/27 19:15:44;;;;;;;7.00;3.13;;;;;;;;;;10181402;29;20104;-83
2023/04/27 19:20:48;;;;;;;;;;;;;;;;;;10181173;29;20480;-83
2023/04/27 19:25:50;;;;;;;7.68;2.83;;;;;;;;;;10179351;29;19927;-83
2023/04/27 19:30:58;;;;;;;6.20;2.70;;;;;;;;;;10178778;29;20044;-82
2023/04/27 19:36:00;;;;;;;;;;;;;;;;;;10184741;29;20727;-83
2023/04/27 19:41:05;;;;;;;9.90;3.38;;;;;;;;;;10176237;29;20364;-82
2023/04/27 19:46:09;;;;;;;6.75;2.92;;;;;;;;;;10183702;29;20047;-83
2023/04/27 19:51:12;;;;;;;;;;;;;;;;;;10182322;29;20404;-82
2023/04/27 19:56:14;;;;;;;6.70;3.38;;;;;;;;;;10188118;29;19927;-82
2023/04/27 20:01:20;;;;;;;6.80;2.70;;;;;;;;;;10184489;29;20422;-83
2023/04/27 20:06:23;;;;;;;6.40;3.03;;;;;;;;;;10182858;29;20056;-82
2023/04/27 20:11:26;;;;;;;6.93;2.90;;;;;;;;;;10187080;29;20044;-84
2023/04/27 20:16:30;;;;;;;6.18;2.85;;;;;;;;;;10187166;29;20047;-83
2023/04/27 20:21:33;;;;;;;5.07;2.45;;;;;;;;;;10181706;29;20450;-84
2023/04/27 20:26:35;;;;;;;5.07;2.08;;;;;;;;;;10181199;29;20052;-84
2023/04/27 20:31:39;;;;;;;6.70;3.08;;;;;;;;;;10181652;29;20136;-84
2023/04/27 20:36:43;;;;;;;1.52;1.08;;;;;;;;;;10184798;29;20496;-83
2023/04/27 20:41:45;;;;;;;9.43;2.80;;;;;;;;;;10183354;29;20055;-83
2023/04/27 20:46:49;;;;;;;6.50;2.97;;;;;;;;;;10180206;29;20048;-84
2023/04/27 20:51:52;;;;;;;6.85;2.85;;;;;;;;;;10176070;29;20036;-85
2023/04/27 20:56:55;;;;;;;7.45;3.33;;;;;;;;;;10184062;29;20054;-84
2023/04/27 21:01:59;;;;;;;5.93;2.17;;;;;;;;;;10183980;29;20038;-83
2023/04/27 21:07:02;;;;;;;7.03;3.10;;;;;;;;;;10179517;29;20087;-84
2023/04/27 21:12:05;;;;;;;3.30;2.10;;;;;;;;;;10176616;29;20751;-86
2023/04/27 21:17:09;;;;;;;5.50;2.07;;;;;;;;;;10176794;29;20059;-85
2023/04/27 21:22:12;;;;;;;5.57;2.65;;;;;;;;;;10175706;29;20063;-84
2023/04/27 21:27:15;;;;;;;4.10;1.83;;;;;;;;;;10178075;29;20067;-83
2023/04/27 21:32:19;;;;;;;8.85;4.07;;;;;;;;;;10179016;29;20123;-83
2023/04/27 21:37:21;;;;;;;6.70;2.85;;;;;;;;;;10174183;29;20088;-82
2023/04/27 21:42:24;;;;;;;7.55;2.65;;;;;;;;;;10174507;29;20063;-83
2023/04/27 21:47:28;;;;;;;10.07;3.55;;;;;;;;;;10179803;29;20048;-84
2023/04/27 21:52:31;;;;;;;;;;;;;;;;;;10170959;29;20052;-84
2023/04/27 21:57:33;;;;;;;5.03;2.15;;;;;;;;;;10173329;29;19945;-84
2023/04/27 22:02:37;;;;;;;3.83;2.45;;;;;;;;;;10176824;29;20065;-85
2023/04/27 22:07:41;;;;;;;3.72;1.75;;;;;;;;;;10172043;29;20111;-85
2023/04/27 22:12:45;;;;;;;6.73;1.73;;;;;;;;;;10179102;29;20044;-84
2023/04/27 22:17:50;;;;;;;3.90;1.52;;;;;;;;;;10182440;29;20441;-86
2023/04/27 22:22:52;;;;;;;9.80;2.65;;;;;;;;;;10177955;29;20084;-85
2023/04/27 22:27:55;;;;;;;5.72;2.80;;;;;;;;;;10179435;29;20044;-85
2023/04/27 22:33:01;;;;;;;3.72;2.05;;;;;;;;;;10176453;29;20426;-85
2023/04/27 22:38:03;;;;;;;3.88;1.67;;;;;;;;;;10183281;29;20639;-87
2023/04/27 22:43:06;;;;;;;3.08;1.27;;;;;;;;;;10187771;29;20040;-86
2023/04/27 22:48:10;;;;;;;2.97;1.30;;;;;;;;;;10185442;29;20149;-84
2023/04/27 22:53:12;;;;;;;;;;;;;;;;;;10189606;29;20080;-82
2023/04/27 22:58:15;;;;;;;4.70;2.20;;;;;;;;;;10183370;29;19923;-83
2023/04/27 23:03:19;;;;;;;7.07;2.85;;;;;;;;;;10194330;29;20044;-83
2023/04/27 23:08:23;;;;;;;8.18;2.97;;;;;;;;;;10188565;29;20127;-82
2023/04/27 23:13:26;;;;;;;6.30;2.40;;;;;;;;;;10187462;29;20047;-84
2023/04/27 23:18:30;;;;;;;6.03;2.65;;;;;;;;;;10183058;29;20382;-85
2023/04/27 23:23:33;;;;;;;4.22;2.50;;;;;;;;;;10185719;29;20567;-85
2023/04/27 23:28:36;;;;;;;2.75;1.60;;;;;;;;;;10184642;29;20123;-84
2023/04/27 23:33:41;;;;;;;6.10;2.60;;;;;;;;;;10184256;29;20237;-84
2023/04/27 23:38:44;;;;;;;4.10;2.17;;;;;;;;;;10187597;29;20059;-83
2023/04/27 23:43:47;;;;;;;3.58;1.48;;;;;;;;;;10185702;29;20048;-84
2023/04/27 23:48:51;;;;;;;3.13;1.50;;;;;;;;;;10182179;29;20134;-84
2023/04/27 23:53:54;;;;;;;3.08;1.60;;;;;;;;;;10182531;29;20040;-85
2023/04/27 23:58:57;;;;;;;5.53;2.30;;;;;;;;;;10182611;29;20051;-84
